Time;durP1;ratioP1;P1;durP2;ratioP2;P2;SDS_P1;SDS_P2;PMS_P1;PMS_P2;Temp;Humidity;BMP_temperature;BMP_pressure;BME280_temperature;BME280_humidity;BME280_pressure;Samples;Min_cycle;Max_cycle;Signal;HPM_P1;HPM_P2
2024/04/12 00:02:27;;;;;;;;;;;;;;;;;;;;;
2024/04/12 00:05:35;;;;;;;10.70;6.95;;;;;;;11.21;100.00;98556.28;5073491;28;20027;-75
2024/04/12 00:08:37;;;;;;;14.40;6.32;;;;;;;11.15;100.00;98548.53;5090976;28;20032;-75
2024/04/12 00:11:53;;;;;;;14.90;6.68;;;;;;;11.08;100.00;98540.88;5073462;28;20048;-75
2024/04/12 00:14:30;;;;;;;11.57;6.10;;;;;;;11.12;100.00;98554.06;5057758;28;20538;-76
2024/04/12 00:18:05;;;;;;;;;;;;;;;;;;;;;
2024/04/12 00:25:17;;;;;;;;;;;;;;;;;;;;;
2024/04/12 00:27:57;;;;;;;10.70;6.38;;;;;;;11.02;100.00;98551.88;4963874;28;20042;-76
2024/04/12 00:34:17;;;;;;;;;;;;;;;;;;;;;
2024/04/12 00:37:18;;;;;;;9.63;6.55;;;;;;;10.99;100.00;98554.69;4975192;28;20051;-76
2024/04/12 00:40:52;;;;;;;;;;;;;;;;;;;;;
2024/04/12 00:43:52;;;;;;;8.55;6.43;;;;;;;10.98;100.00;98545.81;5090489;28;20411;-77
2024/04/12 00:50:23;;;;;;;8.23;5.95;;;;;;;10.98;100.00;98561.00;5080973;28;20510;-76
2024/04/12 00:53:06;;;;;;;11.93;6.32;;;;;;;11.05;100.00;98554.41;5075735;28;20039;-76
2024/04/12 00:56:23;;;;;;;14.18;6.45;;;;;;;11.07;100.00;98550.75;5088142;28;20514;-77
2024/04/12 00:59:01;;;;;;;;;;;;;;;;;;;;;
2024/04/12 01:02:08;;;;;;;;;;;;;;;;;;;;;
2024/04/12 01:05:30;;;;;;;11.52;7.03;;;;;;;10.89;100.00;98554.25;5081249;28;20042;-75
2024/04/12 01:08:33;;;;;;;11.15;6.40;;;;;;;10.91;100.00;98551.53;5090145;28;20114;-77
2024/04/12 01:11:34;;;;;;;;;;;;;;;;;;;;;
2024/04/12 01:14:34;;;;;;;9.25;6.00;;;;;;;10.71;100.00;98564.03;5079982;28;20406;-76
2024/04/12 01:17:38;;;;;;;11.00;6.38;;;;;;;10.53;100.00;98553.28;5088801;28;20027;-76
2024/04/12 01:20:51;;;;;;;10.40;6.38;;;;;;;10.43;100.00;98560.03;5090208;28;20153;-77
2024/04/12 01:24:16;;;;;;;;;;;;;;;;;;;;;
2024/04/12 01:30:02;;;;;;;;;;;;;;;;;;;;;
2024/04/12 01:33:21;;;;;;;11.88;6.43;;;;;;;10.50;100.00;98562.31;5093605;28;20032;-77
2024/04/12 01:39:29;;;;;;;10.52;6.00;;;;;;;10.42;100.00;98548.44;5069109;28;20052;-76
2024/04/12 01:43:26;;;;;;;11.32;7.03;;;;;;;10.45;100.00;98556.34;5072327;28;20037;-77
2024/04/12 01:49:46;;;;;;;;;;;;;;;;;;;;;
2024/04/12 01:52:55;;;;;;;8.55;5.82;;;;;;;10.13;100.00;98565.78;5089680;28;20379;-76
2024/04/12 01:55:51;;;;;;;;;;;;;;;;;;;;;
2024/04/12 02:02:11;;;;;;;;;;;;;;;;;;;;;
2024/04/12 02:05:10;;;;;;;9.60;5.43;;;;;;;10.05;100.00;98562.56;5082929;28;20522;-77
2024/04/12 02:08:14;;;;;;;11.70;6.43;;;;;;;10.03;100.00;98574.25;5073155;28;20036;-77
2024/04/12 02:11:27;;;;;;;17.92;6.75;;;;;;;9.97;100.00;98579.81;5063524;28;20020;-76
2024/04/12 02:15:10;;;;;;;;;;;;;;;;;;;;;
2024/04/12 02:21:32;;;;;;;;;;;;;;;;;;;;;
2024/04/12 02:27:37;;;;;;;20.42;7.22;;;;;;;9.80;100.00;98564.53;4995562;28;20158;-76
2024/04/12 02:30:19;;;;;;;20.05;8.90;;;;;;;9.81;100.00;98568.94;5007772;28;20561;-76
2024/04/12 02:33:24;;;;;;;;;;;;;;;;;;;;;
2024/04/12 02:37:01;;;;;;;14.93;7.35;;;;;;;9.81;100.00;98575.13;5037345;28;20389;-76
2024/04/12 02:39:51;;;;;;;18.92;9.57;;;;;;;9.80;100.00;98575.22;5080380;28;20389;-75
2024/04/12 02:42:58;;;;;;;16.25;9.13;;;;;;;9.79;100.00;98576.16;5092352;28;20510;-75
2024/04/12 02:49:37;;;;;;;20.25;8.98;;;;;;;9.63;100.00;98565.22;5086964;28;20036;-77
2024/04/12 02:52:55;;;;;;;18.95;10.27;;;;;;;9.59;100.00;98570.78;5090961;28;20518;-77
2024/04/12 02:56:00;;;;;;;26.75;9.35;;;;;;;9.65;100.00;98574.06;5076821;28;20032;-78
2024/04/12 02:58:59;;;;;;;33.78;13.48;;;;;;;9.58;100.00;98569.03;5066552;28;20051;-75
2024/04/12 03:02:26;;;;;;;23.90;12.20;;;;;;;9.55;100.00;98572.69;5074864;28;20035;-76
2024/04/12 03:08:38;;;;;;;37.67;17.05;;;;;;;9.39;100.00;98576.06;5062610;28;20032;-75
2024/04/12 03:14:54;;;;;;;19.15;10.10;;;;;;;9.39;100.00;98582.28;4989644;28;20093;-76
2024/04/12 03:25:23;;;;;;;20.85;9.85;;;;;;;9.39;100.00;98586.72;4951026;29;20173;-75
2024/04/12 03:31:58;;;;;;;14.48;7.15;;;;;;;9.50;100.00;98592.53;5028957;28;20090;-75
2024/04/12 03:44:48;;;;;;;19.10;7.35;;;;;;;9.81;100.00;98617.06;5127992;27;20549;-75
2024/04/12 03:51:43;;;;;;;;;;;;;;;;;;;;;
2024/04/12 03:57:51;;;;;;;21.40;7.65;;;;;;;10.12;100.00;98606.78;5027613;28;20037;-76
2024/04/12 04:00:57;;;;;;;11.55;6.70;;;;;;;10.22;100.00;98602.81;5010355;28;20509;-75
2024/04/12 04:04:35;;;;;;;;;;;;;;;;;;;;;
2024/04/12 04:07:36;;;;;;;10.15;6.63;;;;;;;10.29;100.00;98614.97;5021611;28;20412;-73
2024/04/12 04:10:49;;;;;;;;;;;;;;;;;;;;;
2024/04/12 04:13:44;;;;;;;;;;;;;;;;;;;;;
2024/04/12 04:17:01;;;;;;;21.65;8.82;;;;;;;10.40;100.00;98625.19;5114941;28;20057;-80
2024/04/12 04:20:13;;;;;;;21.63;9.60;;;;;;;10.49;100.00;98622.09;5117377;28;20031;-79
2024/04/12 04:23:22;;;;;;;27.33;12.10;;;;;;;10.59;100.00;98628.78;5108057;28;20039;-74
2024/04/12 04:26:26;;;;;;;;;;;;;;;;;;;;;
2024/04/12 04:29:25;;;;;;;;;;;;;;;;;;;;;
2024/04/12 04:32:12;;;;;;;19.05;8.43;;;;;;;10.86;100.00;98632.91;5128662;28;20027;-74
2024/04/12 04:35:31;;;;;;;28.85;10.25;;;;;;;10.95;100.00;98631.59;5111904;28;20410;-74
2024/04/12 04:38:49;;;;;;;34.00;9.45;;;;;;;11.03;100.00;98629.47;5115260;28;20067;-73
2024/04/12 04:41:44;;;;;;;31.17;11.23;;;;;;;11.08;100.00;98638.13;5128217;28;20061;-75
2024/04/12 04:44:36;;;;;;;26.92;11.00;;;;;;;11.07;100.00;98635.53;5128472;28;20414;-75
2024/04/12 04:47:44;;;;;;;24.77;10.88;;;;;;;11.11;100.00;98643.34;5109833;28;20119;-74
2024/04/12 04:51:01;;;;;;;24.13;11.07;;;;;;;11.12;100.00;98641.53;5126121;28;20049;-74
2024/04/12 04:53:34;;;;;;;23.00;10.02;;;;;;;11.14;100.00;98635.16;5107742;28;20019;-74
2024/04/12 04:56:34;;;;;;;27.10;9.43;;;;;;;11.32;100.00;98649.53;5121182;27;20104;-75
2024/04/12 05:02:50;;;;;;;28.65;11.30;;;;;;;11.92;100.00;98645.72;5094314;28;20231;-74
2024/04/12 05:05:41;;;;;;;;;;;;;;;;;;;;;
2024/04/12 05:22:11;;;;;;;32.75;13.82;;;;;;;12.76;100.00;98644.94;5062354;28;20123;-74
2024/04/12 05:24:52;;;;;;;31.67;12.65;;;;;;;13.22;100.00;98652.28;5085201;28;20047;-74
2024/04/12 05:27:48;;;;;;;;;;;;;;;;;;;;;
2024/04/12 05:30:36;;;;;;;21.75;10.48;;;;;;;14.19;100.00;98640.44;5068173;28;20158;-74
2024/04/12 05:33:24;;;;;;;30.25;10.45;;;;;;;14.26;100.00;98637.28;5067701;28;20049;-74
2024/04/12 05:36:34;;;;;;;29.65;10.93;;;;;;;14.13;100.00;98652.44;5065167;28;20048;-74
2024/04/12 05:39:39;;;;;;;;;;;;;;;;;;;;;
2024/04/12 05:46:11;;;;;;;72.38;11.65;;;;;;;13.87;100.00;98655.78;5070234;28;20120;-74
2024/04/12 05:52:50;;;;;;;;;;;;;;;;;;;;;
2024/04/12 05:59:11;;;;;;;;;;;;;;;;;;;;;
2024/04/12 06:02:19;;;;;;;;;;;;;;;;;;;;;
2024/04/12 06:05:07;;;;;;;26.50;10.02;;;;;;;20.01;82.10;98593.22;5051127;28;20067;-73
2024/04/12 06:18:18;;;;;;;20.25;10.30;;;;;;;21.63;63.54;98584.47;5065765;28;20036;-75
2024/04/12 06:20:57;;;;;;;24.92;11.18;;;;;;;21.71;63.15;98589.22;5052684;28;20051;-75
2024/04/12 06:27:29;;;;;;;18.83;10.52;;;;;;;21.32;65.72;98582.75;5005233;28;20387;-75
2024/04/12 06:30:26;;;;;;;;;;;;;;;;;;;;;
2024/04/12 06:33:51;;;;;;;23.70;9.55;;;;;;;21.93;63.08;98580.81;5054752;28;20036;-76
2024/04/12 06:36:44;;;;;;;22.88;9.02;;;;;;;21.68;62.04;98577.75;4989507;28;20482;-75
2024/04/12 06:46:41;;;;;;;;;;;;;;;;;;;;;
2024/04/12 06:49:54;;;;;;;;;;;;;;;;;;;;;
2024/04/12 06:52:34;;;;;;;20.67;9.93;;;;;;;24.55;51.65;98566.06;5071337;28;20073;-75
2024/04/12 06:55:32;;;;;;;;;;;;;;;;;;;;;
2024/04/12 06:58:29;;;;;;;10.35;7.10;;;;;;;25.75;46.33;98556.97;5088610;28;20066;-75
2024/04/12 07:05:16;;;;;;;8.40;6.15;;;;;;;25.17;47.08;98550.47;5079651;28;20070;-76
2024/04/12 07:08:26;;;;;;;;;;;;;;;;;;;;;
2024/04/12 07:11:26;;;;;;;;;;;;;;;;;;;;;
2024/04/12 07:14:24;;;;;;;;;;;;;;;;;;;;;
2024/04/12 07:20:42;;;;;;;12.55;7.00;;;;;;;27.14;42.60;98540.53;5068147;28;20547;-76
2024/04/12 07:24:03;;;;;;;;;;;;;;;;;;;;;
2024/04/12 07:27:14;;;;;;;13.98;7.05;;;;;;;26.51;43.55;98547.75;5086242;28;20050;-75
2024/04/12 07:33:31;;;;;;;13.43;7.97;;;;;;;28.61;41.34;98544.34;5072187;28;20039;-76
2024/04/12 07:37:00;;;;;;;16.20;8.18;;;;;;;28.46;40.30;98536.00;5069670;28;20072;-77
2024/04/12 07:43:41;;;;;;;10.15;6.72;;;;;;;27.51;41.64;98530.81;5070303;28;20039;-76
2024/04/12 07:46:39;;;;;;;12.77;7.85;;;;;;;28.00;41.16;98530.41;5087267;28;20035;-76
2024/04/12 07:49:33;;;;;;;;;;;;;;;;;;;;;
2024/04/12 07:56:20;;;;;;;;;;;;;;;;;;;;;
2024/04/12 08:02:21;;;;;;;8.25;5.75;;;;;;;31.25;36.50;98506.19;5037605;28;20039;-77
2024/04/12 08:05:24;;;;;;;;;;;;;;;;;;;;;
2024/04/12 08:08:14;;;;;;;14.20;6.10;;;;;;;30.15;36.82;98500.22;4989223;28;20145;-76
2024/04/12 08:11:31;;;;;;;;;;;;;;;;;;;;;
2024/04/12 08:14:33;;;;;;;15.77;6.05;;;;;;;30.94;36.88;98501.94;5073670;28;20487;-77
2024/04/12 08:17:39;;;;;;;16.02;5.93;;;;;;;30.90;37.17;98502.47;5090444;28;20012;-77
2024/04/12 08:20:46;;;;;;;14.98;5.85;;;;;;;31.26;36.29;98494.91;5085835;28;20049;-76
2024/04/12 08:23:56;;;;;;;9.05;5.07;;;;;;;31.21;35.71;98494.69;5077568;28;20089;-77
2024/04/12 08:26:40;;;;;;;9.65;5.43;;;;;;;31.34;36.06;98483.69;5072490;28;20043;-77
2024/04/12 08:30:39;;;;;;;;;;;;;;;;;;;;;
2024/04/12 08:33:57;;;;;;;;;;;;;;;;;;;;;
2024/04/12 08:37:12;;;;;;;;;;;;;;;;;;;;;
2024/04/12 08:44:17;;;;;;;8.68;5.82;;;;;;;33.68;31.86;98477.13;4962563;28;20055;-77
2024/04/12 08:47:48;;;;;;;;;;;;;;;;;;;;;
2024/04/12 08:50:03;;;;;;;10.75;5.30;;;;;;;33.73;32.09;98467.03;4951937;28;20101;-77
2024/04/12 08:53:17;;;;;;;15.57;4.63;;;;;;;34.55;30.96;98459.75;4973246;28;20431;-76
2024/04/12 08:56:30;;;;;;;11.20;4.90;;;;;;;33.67;31.31;98467.94;4972945;28;20030;-76
2024/04/12 08:59:21;;;;;;;8.23;4.80;;;;;;;31.46;33.86;98459.06;5025792;28;20036;-76
2024/04/12 09:02:25;;;;;;;8.43;4.35;;;;;;;32.98;31.43;98442.63;5073752;28;20391;-76
2024/04/12 09:05:06;;;;;;;7.60;5.43;;;;;;;33.57;30.66;98445.28;5066981;28;20047;-76
2024/04/12 09:08:27;;;;;;;;;;;;;;;;;;;;;
2024/04/12 09:11:11;;;;;;;7.00;4.78;;;;;;;34.66;29.42;98434.91;4992805;28;20054;-76
2024/04/12 09:14:20;;;;;;;;;;;;;;;;;;;;;
2024/04/12 09:17:24;;;;;;;17.70;7.10;;;;;;;35.08;29.92;98432.38;4969122;28;20042;-77
2024/04/12 09:20:03;;;;;;;13.13;5.18;;;;;;;35.37;28.88;98431.69;4997735;28;20094;-76
2024/04/12 09:23:09;;;;;;;;;;;;;;;;;;;;;
2024/04/12 09:26:52;;;;;;;;;;;;;;;;;;;;;
2024/04/12 09:29:23;;;;;;;;;;;;;;;;;;;;;
2024/04/12 09:35:17;;;;;;;8.95;4.93;;;;;;;36.18;27.68;98417.41;5058042;28;20027;-77
2024/04/12 09:38:16;;;;;;;9.43;4.72;;;;;;;35.24;28.07;98410.41;5071323;28;20408;-77
2024/04/12 09:44:26;;;;;;;7.70;5.13;;;;;;;36.87;27.34;98411.97;5068859;28;20492;-77
2024/04/12 10:37:47;;;;;;;;;;;;;;;;;;;;;
2024/04/12 10:40:31;;;;;;;;;;;;;;;;;;;;;
2024/04/12 10:43:28;;;;;;;9.88;4.72;;;;;;;36.97;27.06;98340.75;5071820;28;20040;-74
2024/04/12 10:46:27;;;;;;;10.15;4.20;;;;;;;38.05;26.33;98340.88;5071881;28;20090;-77
2024/04/12 10:49:42;;;;;;;9.30;4.13;;;;;;;37.51;26.71;98334.75;5062418;28;20072;-76
2024/04/12 10:52:43;;;;;;;7.50;5.53;;;;;;;38.79;26.09;98326.56;5071840;28;20090;-76
2024/04/12 10:58:33;;;;;;;10.82;4.55;;;;;;;38.19;26.83;98329.13;5045870;28;20048;-78
2024/04/12 11:01:46;;;;;;;7.90;4.78;;;;;;;38.52;26.23;98324.69;5066318;28;20102;-77
2024/04/12 11:06:17;;;;;;;13.95;6.45;;;;;;;38.96;25.79;98329.31;5054201;28;20032;-77
2024/04/12 11:08:38;;;;;;;;;;;;;;;;;;;;;
2024/04/12 11:12:00;;;;;;;9.77;5.95;;;;;;;38.26;26.72;98318.63;5055344;28;20017;-77
2024/04/12 11:31:14;;;;;;;7.00;4.85;;;;;;;37.87;26.84;98303.63;5056017;28;20030;-76
2024/04/12 11:34:29;;;;;;;8.93;4.47;;;;;;;39.13;25.72;98299.34;5052004;28;20084;-76
2024/04/12 11:37:15;;;;;;;11.10;4.43;;;;;;;37.31;27.06;98293.28;5046462;28;20051;-76
2024/04/12 11:43:31;;;;;;;;;;;;;;;;;;;;;
2024/04/12 11:46:43;;;;;;;;;;;;;;;;;;;;;
2024/04/12 11:59:27;;;;;;;5.90;4.15;;;;;;;39.44;24.92;98262.19;4916136;29;20099;-74
2024/04/12 12:02:24;;;;;;;6.75;4.90;;;;;;;40.06;24.48;98253.34;4953014;28;20049;-75
2024/04/12 12:05:28;;;;;;;10.88;4.65;;;;;;;40.51;23.79;98244.50;4962192;28;20049;-74
2024/04/12 12:18:27;;;;;;;10.13;5.60;;;;;;;38.29;26.11;98241.75;5056642;28;20040;-75
2024/04/12 12:21:08;;;;;;;6.80;4.30;;;;;;;39.87;25.10;98227.66;5055025;28;20135;-76
2024/04/12 12:24:37;;;;;;;13.18;4.63;;;;;;;39.44;24.70;98236.16;5078013;28;20024;-76
2024/04/12 12:28:01;;;;;;;21.45;5.38;;;;;;;38.01;25.81;98227.88;5090392;28;20020;-76
2024/04/12 12:31:26;;;;;;;;;;;;;;;;;;;;;
2024/04/12 12:34:25;;;;;;;;;;;;;;;;;;;;;
2024/04/12 12:37:03;;;;;;;6.55;4.05;;;;;;;35.98;27.81;98210.59;5078870;28;20037;-76
2024/04/12 12:40:15;;;;;;;12.60;4.28;;;;;;;36.35;27.11;98207.38;5051619;28;20036;-75
2024/04/12 12:43:12;;;;;;;8.95;4.72;;;;;;;36.75;26.35;98204.69;5066338;28;20108;-77
2024/04/12 12:46:20;;;;;;;11.15;4.35;;;;;;;37.25;26.46;98206.88;5035922;28;20480;-76
2024/04/12 12:50:03;;;;;;;;;;;;;;;;;;;;;
2024/04/12 12:52:59;;;;;;;11.57;4.70;;;;;;;35.43;28.45;98199.69;5065634;28;20416;-75
2024/04/12 13:02:24;;;;;;;8.25;4.35;;;;;;;36.26;28.26;98203.25;5062442;28;20495;-76
2024/04/12 13:05:29;;;;;;;;;;;;;;;;;;;;;
2024/04/12 13:11:42;;;;;;;5.30;3.97;;;;;;;36.43;27.52;98181.03;4972028;28;20082;-76
2024/04/12 13:14:28;;;;;;;7.57;4.50;;;;;;;36.05;28.08;98183.50;5068749;28;20075;-76
2024/04/12 13:17:12;;;;;;;;;;;;;;;;;;;;;
2024/04/12 13:20:20;;;;;;;6.60;4.18;;;;;;;35.96;28.56;98174.63;5054746;28;20054;-76
2024/04/12 13:23:17;;;;;;;8.60;4.65;;;;;;;36.23;28.08;98178.66;5055574;28;20044;-75
2024/04/12 13:30:09;;;;;;;;;;;;;;;;;;;;;
2024/04/12 13:39:39;;;;;;;10.23;4.38;;;;;;;35.13;29.11;98171.03;4900028;29;20080;-76
2024/04/12 13:42:47;;;;;;;8.80;4.50;;;;;;;32.63;31.38;98181.50;4933823;29;20035;-75
2024/04/12 14:04:53;;;;;;;;;;;;;;;;;;;;;
2024/04/12 14:07:50;;;;;;;;;;;;;;;;;;;;;
2024/04/12 14:14:36;;;;;;;;;;;;;;;;;;;;;
2024/04/12 14:17:35;;;;;;;;;;;;;;;;;;;;;
2024/04/12 14:20:40;;;;;;;9.32;4.95;;;;;;;31.06;34.74;98159.41;5072102;28;20046;-76
2024/04/12 14:30:04;;;;;;;12.70;7.22;;;;;;;29.08;37.79;98152.75;5061806;28;20162;-78
2024/04/12 14:36:34;;;;;;;12.20;6.63;;;;;;;28.31;38.83;98155.22;5052694;28;20051;-76
2024/04/12 14:45:37;;;;;;;12.13;5.60;;;;;;;27.63;40.96;98150.81;5057847;28;20484;-74
2024/04/12 14:48:34;;;;;;;;;;;;;;;;;;;;;
2024/04/12 14:51:22;;;;;;;8.48;4.97;;;;;;;27.24;41.66;98152.88;5071765;28;20024;-81
2024/04/12 14:54:21;;;;;;;10.90;5.60;;;;;;;27.17;41.95;98150.00;5053475;28;20115;-82
2024/04/12 14:57:19;;;;;;;;;;;;;;;;;;;;;
2024/04/12 15:00:18;;;;;;;11.57;6.00;;;;;;;27.13;42.89;98151.44;5065996;28;20035;-80
2024/04/12 15:52:10;;;;;;;9.10;5.63;;;;;;;25.57;47.65;98134.16;5008938;28;20172;-77
2024/04/12 15:55:16;;;;;;;8.30;5.20;;;;;;;25.50;48.83;98137.78;4969058;28;20077;-76
2024/04/12 16:10:51;;;;;;;10.43;5.32;;;;;;;24.97;54.28;98139.16;5014221;28;20582;-77
2024/04/12 16:13:43;;;;;;;9.35;5.22;;;;;;;24.79;52.86;98143.91;5028243;28;20128;-77
2024/04/12 16:19:42;;;;;;;18.08;7.57;;;;;;;24.60;56.35;98138.72;4984436;28;20034;-78
2024/04/12 16:25:42;;;;;;;13.07;5.50;;;;;;;24.33;57.81;98136.28;5005599;28;20152;-77
2024/04/12 16:28:30;;;;;;;16.08;6.40;;;;;;;24.34;57.82;98137.97;5028061;28;20112;-76
2024/04/12 16:31:28;;;;;;;;;;;;;;;;;;;;;
2024/04/12 16:34:35;;;;;;;14.55;6.72;;;;;;;24.14;61.39;98151.09;5028030;28;20439;-74
2024/04/12 16:37:28;;;;;;;;;;;;;;;;;;;;;
2024/04/12 16:40:35;;;;;;;;;;;;;;;;;;;;;
2024/04/12 16:43:41;;;;;;;10.95;5.97;;;;;;;23.72;67.37;98157.34;5075344;28;20024;-77
2024/04/12 16:46:49;;;;;;;22.30;11.63;;;;;;;23.67;66.88;98167.03;5086190;28;20062;-77
2024/04/12 16:49:29;;;;;;;;;;;;;;;;;;;;;
2024/04/12 17:03:28;;;;;;;;;;;;;;;;;;;;;
2024/04/12 17:06:23;;;;;;;23.80;12.35;;;;;;;22.54;87.86;98187.84;5077782;28;20135;-77
2024/04/12 17:12:53;;;;;;;;;;;;;;;;;;;;;
2024/04/12 17:19:39;;;;;;;55.83;31.08;;;;;;;21.53;98.76;98196.88;5093852;28;20031;-78
2024/04/12 17:26:26;;;;;;;12.30;7.10;;;;;;;21.20;100.00;98204.69;5050944;28;20075;-75
2024/04/12 17:29:33;;;;;;;29.52;13.02;;;;;;;21.08;100.00;98207.56;5051228;28;20408;-76
2024/04/12 17:32:35;;;;;;;20.02;9.30;;;;;;;20.92;100.00;98211.81;5036840;28;20040;-76
2024/04/12 17:35:41;;;;;;;22.83;7.93;;;;;;;20.81;100.00;98214.69;5051244;28;20032;-75
2024/04/12 17:38:38;;;;;;;22.60;9.30;;;;;;;20.69;100.00;98222.13;5035560;28;20045;-77
2024/04/12 17:41:54;;;;;;;27.02;11.93;;;;;;;20.55;100.00;98214.38;5051287;28;20044;-75
2024/04/12 17:48:01;;;;;;;;;;;;;;;20.32;100.00;98224.66;5033014;28;20072;-76
2024/04/12 17:51:08;;;;;;;21.83;9.20;;;;;;;20.28;100.00;98230.47;5011342;28;19913;-75
2024/04/12 17:54:18;;;;;;;20.88;8.55;;;;;;;20.23;100.00;98232.72;5034575;28;20102;-76
2024/04/12 17:57:12;;;;;;;17.02;7.63;;;;;;;20.13;100.00;98229.13;5051067;28;20052;-76
2024/04/12 18:00:13;;;;;;;;;;;;;;;;;;;;;
2024/04/12 18:02:54;;;;;;;;;;;;;;;;;;;;;
2024/04/12 18:05:33;;;;;;;16.92;8.38;;;;;;;19.84;100.00;98232.56;5075872;28;20023;-75
2024/04/12 18:15:14;;;;;;;14.02;8.38;;;;;;;19.74;100.00;98234.41;4983430;28;20149;-74
2024/04/12 18:17:56;;;;;;;22.05;8.48;;;;;;;19.68;100.00;98234.94;4981667;28;20041;-74
2024/04/12 18:20:43;;;;;;;19.25;9.07;;;;;;;19.53;100.00;98233.56;4990789;28;20045;-75
2024/04/12 18:23:57;;;;;;;;;;;;;;;;;;;;;
2024/04/12 18:27:09;;;;;;;36.60;12.30;;;;;;;19.37;100.00;98250.28;4991125;28;20038;-76
2024/04/12 18:33:05;;;;;;;22.45;9.70;;;;;;;19.11;100.00;98248.06;4984624;28;20438;-75
2024/04/12 18:36:34;;;;;;;23.10;8.15;;;;;;;18.99;100.00;98254.53;4990485;28;20042;-76
2024/04/12 18:52:41;;;;;;;21.70;8.27;;;;;;;18.45;100.00;98260.84;5091966;28;20035;-76
2024/04/12 18:55:33;;;;;;;20.17;10.55;;;;;;;18.38;100.00;98256.91;5039411;28;20042;-76
2024/04/12 18:58:28;;;;;;;21.07;10.27;;;;;;;18.22;100.00;98267.28;5075930;28;20500;-76
2024/04/12 19:01:47;;;;;;;16.88;10.25;;;;;;;18.02;100.00;98260.78;5073769;28;20078;-77
2024/04/12 19:07:57;;;;;;;19.63;9.50;;;;;;;18.03;100.00;98280.56;5048983;28;20176;-76
2024/04/12 19:11:09;;;;;;;25.55;9.32;;;;;;;17.90;100.00;98267.19;5049278;28;20127;-76
2024/04/12 19:20:29;;;;;;;;;;;;;;;;;;;;;
2024/04/12 19:23:25;;;;;;;18.88;9.88;;;;;;;17.51;100.00;98271.16;5089149;28;20569;-75
2024/04/12 19:36:19;;;;;;;20.88;9.15;;;;;;;17.17;100.00;98286.41;5028982;28;20061;-75
2024/04/12 19:45:34;;;;;;;22.02;8.18;;;;;;;16.92;100.00;98277.63;5089131;28;20048;-76
2024/04/12 19:48:27;;;;;;;16.25;8.15;;;;;;;17.00;100.00;98276.06;5074103;28;20074;-76
2024/04/12 19:51:48;;;;;;;;;;;;;;;;;;;;;
2024/04/12 19:54:56;;;;;;;15.95;8.10;;;;;;;16.94;100.00;98281.91;5065395;28;20040;-74
2024/04/12 19:57:51;;;;;;;12.85;8.75;;;;;;;16.88;100.00;98281.53;5046183;28;20051;-74
2024/04/12 20:00:55;;;;;;;;;;;;;;;;;;;;;
2024/04/12 20:03:52;;;;;;;19.17;9.65;;;;;;;16.81;100.00;98291.94;5091096;28;20027;-76
2024/04/12 20:07:03;;;;;;;;;;;;;;;;;;;;;
2024/04/12 20:10:01;;;;;;;15.93;8.02;;;;;;;16.75;100.00;98290.56;5074730;28;20399;-76
2024/04/12 20:19:09;;;;;;;22.38;9.18;;;;;;;16.46;100.00;98301.75;5090101;28;20036;-77
2024/04/12 20:24:59;;;;;;;22.20;9.05;;;;;;;16.33;100.00;98303.63;5062411;28;20080;-75
2024/04/12 20:37:24;;;;;;;;;;;;;;;;;;;;;
2024/04/12 20:40:12;;;;;;;21.35;8.65;;;;;;;15.87;100.00;98308.78;5006496;28;20067;-75
2024/04/12 20:42:48;;;;;;;14.05;8.30;;;;;;;15.76;100.00;98300.56;5009550;28;20456;-74
2024/04/12 20:45:48;;;;;;;;;;;;;;;;;;;;;
2024/04/12 20:48:55;;;;;;;14.75;8.02;;;;;;;15.66;100.00;98306.63;5076108;28;20023;-75
2024/04/12 20:51:52;;;;;;;13.43;7.32;;;;;;;15.48;100.00;98316.00;5091746;28;20024;-75
2024/04/12 20:54:59;;;;;;;16.17;8.05;;;;;;;15.46;100.00;98312.53;5058518;28;20474;-74
2024/04/12 20:58:11;;;;;;;20.92;8.18;;;;;;;15.46;100.00;98311.66;5063464;28;20050;-75
2024/04/12 21:01:14;;;;;;;;;;;;;;;;;;;;;
2024/04/12 21:03:50;;;;;;;15.18;8.80;;;;;;;15.48;100.00;98321.38;5075201;28;20461;-75
2024/04/12 21:06:43;;;;;;;13.43;8.77;;;;;;;15.43;100.00;98338.81;5091238;28;20031;-75
2024/04/12 21:12:25;;;;;;;18.60;9.45;;;;;;;15.23;100.00;98345.56;5080187;28;20375;-74
2024/04/12 21:15:24;;;;;;;20.90;10.52;;;;;;;15.15;100.00;98347.94;5055793;28;20051;-75
2024/04/12 21:18:05;;;;;;;19.23;11.00;;;;;;;15.14;100.00;98349.75;5090866;28;20451;-74
2024/04/12 21:20:58;;;;;;;17.45;10.35;;;;;;;15.23;100.00;98345.56;5072968;28;20400;-74
2024/04/12 21:24:16;;;;;;;;;;;;;;;;;;;;;
2024/04/12 21:27:11;;;;;;;11.73;8.30;;;;;;;15.14;100.00;98330.03;5090836;28;20034;-73
2024/04/12 21:33:23;;;;;;;;;;;;;;;;;;;;;
2024/04/12 21:36:31;;;;;;;17.17;9.50;;;;;;;14.90;100.00;98342.44;5073912;28;20529;-73
2024/04/12 21:39:33;;;;;;;;;;;;;;;;;;;;;
2024/04/12 21:42:32;;;;;;;16.83;9.90;;;;;;;14.95;100.00;98325.00;5090478;28;20032;-74
2024/04/12 21:45:27;;;;;;;15.88;9.70;;;;;;;15.05;100.00;98331.50;5071818;28;20032;-74
2024/04/12 21:48:18;;;;;;;;;;;;;;;;;;;;;
2024/04/12 21:51:23;;;;;;;13.05;8.85;;;;;;;15.13;100.00;98328.31;5090547;28;20042;-75
2024/04/12 21:54:03;;;;;;;16.23;9.27;;;;;;;15.07;100.00;98328.72;5072222;28;20059;-75
2024/04/12 22:02:43;;;;;;;23.88;10.90;;;;;;;14.47;100.00;98334.50;5076236;28;20418;-74
2024/04/12 22:08:42;;;;;;;;;;;;;;;;;;;;;
2024/04/12 22:11:30;;;;;;;15.63;10.38;;;;;;;14.31;100.00;98328.34;5089954;28;20036;-75
2024/04/12 22:14:42;;;;;;;;;;;;;;;;;;;;;
2024/04/12 22:24:11;;;;;;;;;;;;;;;;;;;;;
2024/04/12 22:27:09;;;;;;;16.02;9.82;;;;;;;14.60;100.00;98319.28;5089698;28;20055;-74
2024/04/12 22:30:07;;;;;;;;;;;;;;;;;;;;;
2024/04/12 22:33:22;;;;;;;20.33;9.75;;;;;;;14.72;100.00;98327.50;5089977;28;20038;-74
2024/04/12 22:36:28;;;;;;;16.73;10.18;;;;;;;14.71;100.00;98331.16;5007307;28;20037;-75
2024/04/12 22:39:24;;;;;;;16.58;10.25;;;;;;;14.77;100.00;98325.38;4969860;28;20085;-74
2024/04/12 22:42:45;;;;;;;18.75;10.52;;;;;;;14.77;100.00;98325.38;5003919;28;20185;-75
2024/04/12 22:52:19;;;;;;;19.80;11.65;;;;;;;14.77;100.00;98325.38;5003739;28;20208;-74
2024/04/12 23:02:03;;;;;;;17.48;11.88;;;;;;;14.64;100.00;98331.56;5007110;28;20113;-73
2024/04/12 23:04:40;;;;;;;18.20;11.40;;;;;;;14.74;100.00;98326.44;4998152;28;20041;-74
2024/04/12 23:07:50;;;;;;;20.90;11.90;;;;;;;14.80;100.00;98327.84;5080250;28;20044;-74
2024/04/12 23:14:04;;;;;;;18.73;12.02;;;;;;;14.82;100.00;98331.34;5068342;28;20048;-74
2024/04/12 23:16:54;;;;;;;18.75;11.88;;;;;;;14.65;100.00;98322.53;5076656;28;20034;-74
2024/04/12 23:20:11;;;;;;;23.05;12.70;;;;;;;14.63;100.00;98329.88;5068223;28;20062;-75
2024/04/12 23:26:04;;;;;;;14.77;10.55;;;;;;;14.59;100.00;98328.31;5066596;28;20051;-74
2024/04/12 23:32:36;;;;;;;18.00;10.82;;;;;;;14.61;100.00;98323.69;5066909;28;20055;-73
2024/04/12 23:45:48;;;;;;;19.25;11.25;;;;;;;14.57;100.00;98307.84;5044264;28;20068;-74
2024/04/12 23:48:42;;;;;;;20.85;11.05;;;;;;;14.60;100.00;98313.91;5051266;28;20090;-75
2024/04/12 23:51:19;;;;;;;22.73;11.68;;;;;;;14.59;100.00;98300.53;5034625;28;20044;-75
